createdAt,value
2022-10-16T00:00:52.935Z,15.23
2022-10-16T00:03:27.989Z,15.24
2022-10-16T00:06:05.102Z,15.26
2022-10-16T00:08:37.300Z,15.28
2022-10-16T00:11:12.761Z,15.31
2022-10-16T00:13:48.117Z,15.33
2022-10-16T00:16:18.414Z,15.35
2022-10-16T00:18:50.482Z,15.36
2022-10-16T00:21:25.954Z,15.37
2022-10-16T00:24:00.300Z,15.37
2022-10-16T00:26:34.555Z,15.37
2022-10-16T00:29:06.626Z,15.39
2022-10-16T00:31:38.179Z,15.40
2022-10-16T00:34:09.921Z,15.42
2022-10-16T00:36:41.161Z,15.44
2022-10-16T00:39:12.289Z,15.45
2022-10-16T00:41:43.640Z,15.46
2022-10-16T00:45:00.971Z,15.45
2022-10-16T00:47:36.629Z,15.43
2022-10-16T00:50:13.426Z,15.40
2022-10-16T00:52:48.786Z,15.39
2022-10-16T00:55:18.878Z,15.38
2022-10-16T00:57:52.067Z,15.36
2022-10-16T01:00:26.902Z,15.35
2022-10-16T01:03:02.065Z,15.34
2022-10-16T01:05:35.196Z,15.34
2022-10-16T01:08:17.252Z,15.34
2022-10-16T01:10:56.525Z,15.30
2022-10-16T01:13:36.951Z,15.28
2022-10-16T01:16:14.901Z,15.26
2022-10-16T01:18:53.826Z,15.24
2022-10-16T01:21:29.050Z,15.25
2022-10-16T01:24:08.953Z,15.25
2022-10-16T01:27:02.875Z,15.23
2022-10-16T01:29:40.468Z,15.22
2022-10-16T01:32:17.753Z,15.19
2022-10-16T01:34:55.030Z,15.16
2022-10-16T01:37:35.820Z,15.14
2022-10-16T01:40:12.382Z,15.13
2022-10-16T01:42:48.703Z,15.12
2022-10-16T01:45:22.372Z,15.11
2022-10-16T01:47:56.826Z,15.10
2022-10-16T01:50:28.885Z,15.09
2022-10-16T01:53:04.218Z,15.08
2022-10-16T01:55:35.221Z,15.07
2022-10-16T01:58:11.838Z,15.04
2022-10-16T02:00:46.585Z,14.99
2022-10-16T02:03:21.944Z,14.95
2022-10-16T02:05:57.404Z,14.91
2022-10-16T02:08:31.168Z,14.90
2022-10-16T02:11:04.241Z,14.90
2022-10-16T02:13:43.138Z,14.90
2022-10-16T02:16:16.131Z,14.89
2022-10-16T02:18:47.618Z,14.90
2022-10-16T02:21:24.972Z,14.90
2022-10-16T02:24:04.084Z,14.88
2022-10-16T02:26:44.142Z,14.86
2022-10-16T02:29:20.509Z,14.82
2022-10-16T02:31:57.502Z,14.82
2022-10-16T02:34:31.505Z,14.82
2022-10-16T02:37:06.568Z,14.83
2022-10-16T02:39:39.223Z,14.82
2022-10-16T02:42:17.744Z,14.79
2022-10-16T02:44:49.057Z,14.77
2022-10-16T02:47:20.521Z,14.77
2022-10-16T02:49:52.102Z,14.76
2022-10-16T02:52:24.051Z,14.73
2022-10-16T02:54:55.903Z,14.74
2022-10-16T02:57:28.540Z,14.75
2022-10-16T03:00:00.619Z,14.76
2022-10-16T03:02:31.899Z,14.78
2022-10-16T03:05:03.102Z,14.80
2022-10-16T03:07:34.458Z,14.82
2022-10-16T03:10:07.022Z,14.85
2022-10-16T03:12:39.803Z,14.87
2022-10-16T03:15:12.252Z,14.88
2022-10-16T03:17:44.156Z,14.88
2022-10-16T03:20:15.904Z,14.88
2022-10-16T03:22:47.367Z,14.87
2022-10-16T03:25:23.154Z,14.87
2022-10-16T03:27:54.629Z,14.87
2022-10-16T03:30:25.900Z,14.87
2022-10-16T03:32:57.277Z,14.85
2022-10-16T03:35:28.601Z,14.83
2022-10-16T03:38:00.192Z,14.80
2022-10-16T03:40:33.987Z,14.81
2022-10-16T03:43:05.490Z,14.82
2022-10-16T03:45:37.120Z,14.81
2022-10-16T03:48:08.527Z,14.78
2022-10-16T03:50:41.241Z,14.78
2022-10-16T03:53:12.448Z,14.79
2022-10-16T03:55:45.141Z,14.78
2022-10-16T03:58:16.552Z,14.77
2022-10-16T04:00:48.678Z,14.75
2022-10-16T04:03:20.310Z,14.75
2022-10-16T04:05:51.837Z,14.72
2022-10-16T04:08:23.423Z,14.69
2022-10-16T04:10:54.895Z,14.65
2022-10-16T04:13:26.193Z,14.61
2022-10-16T04:15:57.277Z,14.57
2022-10-16T04:18:29.379Z,14.53
2022-10-16T04:21:08.111Z,14.52
2022-10-16T04:23:39.303Z,14.49
2022-10-16T04:26:11.464Z,14.46
2022-10-16T04:28:43.042Z,14.42
2022-10-16T04:31:14.513Z,14.40
2022-10-16T04:33:50.171Z,14.37
2022-10-16T04:36:24.243Z,14.34
2022-10-16T04:38:58.158Z,14.33
2022-10-16T04:41:29.520Z,14.32
2022-10-16T04:44:01.074Z,14.33
2022-10-16T04:46:32.854Z,14.32
2022-10-16T04:49:04.247Z,14.30
2022-10-16T04:51:35.585Z,14.29
2022-10-16T04:54:07.132Z,14.26
2022-10-16T04:56:44.667Z,14.23
2022-10-16T04:59:16.727Z,14.21
2022-10-16T05:01:48.667Z,14.20
2022-10-16T05:04:19.805Z,14.17
2022-10-16T05:06:51.590Z,14.14
2022-10-16T05:09:23.173Z,14.13
2022-10-16T05:11:56.368Z,14.12
2022-10-16T05:14:27.696Z,14.11
2022-10-16T05:16:58.967Z,14.11
2022-10-16T05:19:30.039Z,14.09
2022-10-16T05:22:01.403Z,14.09
2022-10-16T05:24:32.859Z,14.09
2022-10-16T05:27:04.412Z,14.09
2022-10-16T05:29:36.367Z,14.09
2022-10-16T05:32:07.826Z,14.11
2022-10-16T05:34:39.007Z,14.12
2022-10-16T05:37:10.917Z,14.12
2022-10-16T05:39:42.870Z,14.14
2022-10-16T05:42:14.086Z,14.13
2022-10-16T05:44:45.242Z,14.13
2022-10-16T05:47:17.442Z,14.20
2022-10-16T05:49:48.724Z,14.53
2022-10-16T05:52:19.933Z,14.92
2022-10-16T05:54:52.109Z,15.29
2022-10-16T05:57:23.560Z,15.67
2022-10-16T05:59:54.865Z,15.85
2022-10-16T06:02:31.104Z,15.94
2022-10-16T06:05:02.419Z,16.08
2022-10-16T06:07:37.676Z,16.38
2022-10-16T06:10:09.284Z,16.78
2022-10-16T06:12:43.629Z,17.28
2022-10-16T06:15:15.114Z,17.99
2022-10-16T06:17:46.654Z,18.59
2022-10-16T06:20:18.046Z,18.99
2022-10-16T06:22:49.708Z,19.63
2022-10-16T06:25:20.699Z,20.17
2022-10-16T06:27:51.896Z,20.79
2022-10-16T06:30:23.046Z,21.39
2022-10-16T06:35:33.019Z,22.35
2022-10-16T06:38:04.576Z,22.93
2022-10-16T06:40:39.947Z,23.64
2022-10-16T06:43:11.616Z,24.40
2022-10-16T06:45:42.877Z,24.96
2022-10-16T06:48:14.276Z,25.34
2022-10-16T06:50:47.498Z,25.78
2022-10-16T06:53:19.303Z,26.16
2022-10-16T06:55:50.758Z,26.49
2022-10-16T06:58:22.511Z,26.76
2022-10-16T07:01:03.375Z,27.21
2022-10-16T07:03:35.074Z,27.68
2022-10-16T07:06:08.647Z,27.41
2022-10-16T07:08:41.627Z,26.49
2022-10-16T07:11:15.425Z,25.53
2022-10-16T07:13:51.041Z,24.65
2022-10-16T07:16:27.543Z,23.82
2022-10-16T07:19:00.755Z,23.12
2022-10-16T07:21:36.859Z,22.43
2022-10-16T07:24:13.523Z,21.76
2022-10-16T07:26:47.139Z,21.19
2022-10-16T07:29:20.840Z,20.60
2022-10-16T07:31:52.763Z,20.05
2022-10-16T07:34:24.237Z,19.62
2022-10-16T07:36:57.388Z,19.29
2022-10-16T07:39:28.799Z,19.05
2022-10-16T07:42:00.146Z,19.03
2022-10-16T07:44:32.305Z,19.70
2022-10-16T07:47:03.992Z,20.52
2022-10-16T07:49:35.073Z,21.53
2022-10-16T07:52:06.384Z,22.34
2022-10-16T07:54:37.745Z,22.70
2022-10-16T07:57:08.828Z,23.01
2022-10-16T07:59:41.234Z,23.36
2022-10-16T08:02:12.992Z,23.49
2022-10-16T08:04:44.144Z,23.49
2022-10-16T08:07:15.534Z,23.44
2022-10-16T08:09:46.696Z,23.18
2022-10-16T08:12:17.801Z,22.98
2022-10-16T08:14:49.250Z,22.88
2022-10-16T08:17:20.532Z,22.71
2022-10-16T08:19:51.820Z,22.51
2022-10-16T08:22:23.058Z,22.26
2022-10-16T08:24:54.219Z,22.00
2022-10-16T08:27:25.844Z,21.89
2022-10-16T08:29:57.480Z,21.85
2022-10-16T08:32:29.125Z,21.92
2022-10-16T08:35:00.837Z,22.01
2022-10-16T08:37:35.049Z,22.08
2022-10-16T08:40:08.414Z,22.11
2022-10-16T08:42:55.474Z,22.13
2022-10-16T08:45:42.276Z,22.09
2022-10-16T08:48:27.335Z,22.08
2022-10-16T08:50:59.451Z,21.99
2022-10-16T08:53:38.246Z,22.02
2022-10-16T08:56:11.085Z,22.47
2022-10-16T08:58:42.773Z,22.99
2022-10-16T09:01:18.076Z,23.20
2022-10-16T09:04:17.261Z,23.44
2022-10-16T09:06:52.579Z,23.66
2022-10-16T09:09:55.367Z,23.64
2022-10-16T09:12:35.375Z,23.56
2022-10-16T09:15:19.074Z,23.60
2022-10-16T09:18:01.272Z,23.63
2022-10-16T09:20:38.889Z,23.84
2022-10-16T09:23:20.195Z,24.13
2022-10-16T09:25:52.722Z,24.36
2022-10-16T09:28:24.671Z,24.39
2022-10-16T09:30:55.996Z,24.33
2022-10-16T09:33:32.314Z,24.26
2022-10-16T09:36:08.170Z,24.15
2022-10-16T09:38:40.202Z,23.94
2022-10-16T09:41:19.761Z,23.80
2022-10-16T09:43:58.168Z,23.69
2022-10-16T09:46:34.838Z,23.58
2022-10-16T09:49:20.914Z,23.43
2022-10-16T09:51:52.604Z,23.22
2022-10-16T09:54:28.130Z,23.16
2022-10-16T09:57:07.946Z,23.12
2022-10-16T09:59:50.802Z,23.11
2022-10-16T10:02:31.783Z,23.09
2022-10-16T10:05:03.430Z,23.08
2022-10-16T10:07:42.049Z,23.09
2022-10-16T10:10:24.969Z,23.14
2022-10-16T10:13:01.600Z,23.22
2022-10-16T10:15:38.712Z,23.28
2022-10-16T10:18:23.195Z,23.35
2022-10-16T10:21:06.014Z,23.40
2022-10-16T10:23:38.619Z,23.38
2022-10-16T10:26:17.728Z,23.34
2022-10-16T10:29:04.510Z,23.31
2022-10-16T10:31:42.637Z,23.26
2022-10-16T10:34:27.709Z,23.21
2022-10-16T10:37:10.227Z,23.18
2022-10-16T10:39:54.152Z,23.14
2022-10-16T10:42:31.671Z,23.07
2022-10-16T10:45:19.078Z,22.94
2022-10-16T10:48:02.619Z,22.79
2022-10-16T10:50:40.862Z,22.68
2022-10-16T10:53:27.698Z,22.57
2022-10-16T10:56:08.530Z,22.45
2022-10-16T10:59:03.364Z,22.37
2022-10-16T11:01:45.336Z,22.34
2022-10-16T11:04:44.886Z,22.27
2022-10-16T11:07:20.767Z,22.17
2022-10-16T11:09:56.813Z,22.14
2022-10-16T11:12:31.876Z,22.13
2022-10-16T11:15:12.876Z,22.14
2022-10-16T11:17:50.296Z,22.13
2022-10-16T11:20:27.694Z,22.09
2022-10-16T11:23:07.676Z,22.07
2022-10-16T11:25:41.507Z,22.03
2022-10-16T11:28:18.208Z,22.00
2022-10-16T11:30:54.979Z,22.00
2022-10-16T11:33:36.213Z,22.01
2022-10-16T11:36:16.863Z,21.98
2022-10-16T11:39:03.264Z,21.91
2022-10-16T11:41:44.027Z,21.80
2022-10-16T11:44:23.870Z,21.71
2022-10-16T11:47:28.482Z,21.63
2022-10-16T11:49:59.780Z,21.58
2022-10-16T11:52:39.503Z,21.61
2022-10-16T11:55:22.342Z,21.62
2022-10-16T11:57:57.093Z,21.64
2022-10-16T12:00:36.487Z,21.62
2022-10-16T12:03:20.286Z,21.58
2022-10-16T12:06:15.734Z,21.52
2022-10-16T12:08:47.878Z,21.49
2022-10-16T12:11:37.978Z,21.45
2022-10-16T12:14:36.901Z,21.40
2022-10-16T12:17:36.224Z,21.43
2022-10-16T12:20:26.800Z,21.48
2022-10-16T12:23:01.415Z,21.55
2022-10-16T12:25:35.243Z,21.59
2022-10-16T12:28:18.506Z,21.61
2022-10-16T12:30:57.319Z,21.60
2022-10-16T12:33:31.116Z,21.59
2022-10-16T12:36:04.808Z,21.58
2022-10-16T12:38:47.639Z,21.55
2022-10-16T12:41:29.602Z,21.57
2022-10-16T12:44:02.384Z,21.57
2022-10-16T12:46:42.073Z,21.55
2022-10-16T12:49:32.834Z,21.55
2022-10-16T12:52:04.445Z,21.55
2022-10-16T12:54:42.278Z,21.54
2022-10-16T12:57:36.888Z,21.48
2022-10-16T13:00:23.595Z,21.41
2022-10-16T13:03:19.983Z,21.32
2022-10-16T13:06:07.062Z,21.20
2022-10-16T13:09:00.268Z,21.00
2022-10-16T13:11:40.867Z,20.80
2022-10-16T13:14:54.855Z,20.65
2022-10-16T13:17:33.413Z,20.53
2022-10-16T13:20:20.171Z,20.49
2022-10-16T13:23:04.929Z,20.48
2022-10-16T13:25:56.022Z,20.47
2022-10-16T13:28:33.670Z,20.47
2022-10-16T13:31:06.056Z,20.47
2022-10-16T13:33:39.836Z,20.48
2022-10-16T13:36:23.617Z,20.49
2022-10-16T13:39:09.560Z,20.50
2022-10-16T13:41:40.947Z,20.49
2022-10-16T13:44:18.326Z,20.49
2022-10-16T13:46:59.918Z,20.50
2022-10-16T13:49:31.192Z,20.52
2022-10-16T13:52:03.313Z,20.52
2022-10-16T13:54:35.123Z,20.53
2022-10-16T13:57:26.322Z,20.53
2022-10-16T13:59:58.474Z,20.55
2022-10-16T14:02:36.361Z,20.56
2022-10-16T14:05:11.596Z,20.55
2022-10-16T14:07:41.925Z,20.55
2022-10-16T14:10:25.793Z,20.53
2022-10-16T14:13:03.218Z,20.53
2022-10-16T14:15:36.814Z,20.54
2022-10-16T14:18:08.907Z,20.57
2022-10-16T14:20:40.506Z,20.61
2022-10-16T14:23:24.407Z,20.64
2022-10-16T14:25:55.996Z,20.67
2022-10-16T14:28:27.351Z,20.68
2022-10-16T14:31:02.849Z,20.68
2022-10-16T14:33:37.739Z,20.69
2022-10-16T14:36:16.163Z,20.68
2022-10-16T14:38:57.006Z,20.68
2022-10-16T14:41:29.003Z,20.64
2022-10-16T14:44:04.038Z,20.60
2022-10-16T14:46:38.750Z,20.59
2022-10-16T14:49:20.934Z,20.58
2022-10-16T14:51:53.069Z,20.57
2022-10-16T14:54:24.432Z,20.57
2022-10-16T14:56:57.825Z,20.56
2022-10-16T14:59:36.144Z,20.55
2022-10-16T15:02:20.907Z,20.55
2022-10-16T15:04:53.105Z,20.56
2022-10-16T15:07:24.571Z,20.57
2022-10-16T15:09:58.084Z,20.57
2022-10-16T15:12:29.240Z,20.58
2022-10-16T15:15:00.444Z,20.59
2022-10-16T15:17:31.582Z,20.59
2022-10-16T15:20:05.830Z,20.59
2022-10-16T15:22:37.275Z,20.59
2022-10-16T15:25:20.433Z,20.58
2022-10-16T15:27:51.479Z,20.56
2022-10-16T15:30:22.896Z,20.53
2022-10-16T15:32:54.550Z,20.51
2022-10-16T15:35:28.312Z,20.48
2022-10-16T15:38:00.098Z,20.43
2022-10-16T15:40:32.884Z,20.39
2022-10-16T15:43:07.344Z,20.37
2022-10-16T15:45:38.703Z,20.33
2022-10-16T15:48:12.445Z,20.29
2022-10-16T15:53:24.850Z,20.25
2022-10-16T15:55:55.889Z,20.23
2022-10-16T15:58:27.739Z,20.19
2022-10-16T16:01:03.011Z,20.15
2022-10-16T16:03:34.511Z,20.13
2022-10-16T16:06:10.833Z,20.09
2022-10-16T16:08:42.520Z,20.05
2022-10-16T16:11:15.327Z,20.01
2022-10-16T16:13:47.837Z,19.98
2022-10-16T16:16:21.226Z,19.95
2022-10-16T16:18:56.574Z,19.92
2022-10-16T16:21:27.938Z,19.86
2022-10-16T16:23:59.380Z,19.83
2022-10-16T16:26:36.756Z,19.76
2022-10-16T16:29:09.014Z,19.71
2022-10-16T16:31:40.324Z,19.68
2022-10-16T16:34:12.117Z,19.65
2022-10-16T16:36:43.582Z,19.62
2022-10-16T16:39:14.943Z,19.57
2022-10-16T16:41:48.910Z,19.52
2022-10-16T16:44:22.854Z,19.48
2022-10-16T16:46:55.698Z,19.44
2022-10-16T16:49:27.084Z,19.41
2022-10-16T16:51:58.517Z,19.38
2022-10-16T16:54:31.860Z,19.37
2022-10-16T16:57:04.327Z,19.36
2022-10-16T16:59:35.465Z,19.35
2022-10-16T17:02:07.900Z,19.32
2022-10-16T17:04:39.502Z,19.30
2022-10-16T17:07:11.122Z,19.28
2022-10-16T17:09:42.204Z,19.25
2022-10-16T17:12:13.663Z,19.21
2022-10-16T17:14:46.110Z,19.19
2022-10-16T17:17:24.191Z,19.18
2022-10-16T17:19:55.822Z,19.14
2022-10-16T17:22:27.169Z,19.13
2022-10-16T17:25:04.630Z,19.11
2022-10-16T17:27:36.507Z,19.08
2022-10-16T17:30:09.888Z,19.07
2022-10-16T17:32:51.028Z,19.04
2022-10-16T17:35:22.349Z,19.01
2022-10-16T17:38:27.513Z,19.00
2022-10-16T17:40:58.664Z,18.98
2022-10-16T17:43:32.315Z,18.96
2022-10-16T17:46:07.505Z,18.93
2022-10-16T17:48:42.320Z,18.91
2022-10-16T17:51:22.342Z,18.89
2022-10-16T17:53:58.802Z,18.88
2022-10-16T17:56:32.445Z,18.87
2022-10-16T17:59:06.808Z,18.86
2022-10-16T18:01:40.666Z,18.85
2022-10-16T18:04:16.655Z,18.84
2022-10-16T18:06:48.718Z,18.84
2022-10-16T18:09:21.982Z,18.81
2022-10-16T18:11:59.965Z,18.81
2022-10-16T18:14:34.505Z,18.80
2022-10-16T18:17:07.330Z,18.79
2022-10-16T18:19:40.842Z,18.76
2022-10-16T18:22:12.112Z,18.72
2022-10-16T18:24:43.234Z,18.70
2022-10-16T18:27:14.385Z,18.65
2022-10-16T18:29:45.486Z,18.61
2022-10-16T18:32:17.658Z,18.59
2022-10-16T18:34:49.885Z,18.57
2022-10-16T18:37:21.313Z,18.54
2022-10-16T18:39:52.806Z,18.52
2022-10-16T18:42:24.262Z,18.50
2022-10-16T18:44:55.696Z,18.48
2022-10-16T18:47:27.595Z,18.45
2022-10-16T18:50:01.487Z,18.43
2022-10-16T18:52:32.853Z,18.40
2022-10-16T18:55:04.560Z,18.37
2022-10-16T18:57:36.329Z,18.34
2022-10-16T19:00:09.292Z,18.31
2022-10-16T19:02:41.565Z,18.29
2022-10-16T19:05:15.681Z,18.26
2022-10-16T19:07:49.606Z,18.23
2022-10-16T19:10:21.177Z,18.21
2022-10-16T19:12:53.677Z,18.17
2022-10-16T19:15:25.432Z,18.15
2022-10-16T19:18:04.631Z,18.12
2022-10-16T19:20:36.519Z,18.09
2022-10-16T19:23:11.017Z,18.04
2022-10-16T19:25:42.450Z,17.99
2022-10-16T19:28:17.752Z,17.94
2022-10-16T19:30:48.661Z,17.90
2022-10-16T19:33:22.203Z,17.87
2022-10-16T19:35:53.977Z,17.84
2022-10-16T19:38:25.154Z,17.79
2022-10-16T19:40:56.464Z,17.75
2022-10-16T19:43:27.601Z,17.72
2022-10-16T19:46:03.526Z,17.69
2022-10-16T19:48:34.982Z,17.66
2022-10-16T19:51:09.637Z,17.64
2022-10-16T19:53:41.632Z,17.60
2022-10-16T19:56:17.985Z,17.58
2022-10-16T19:58:49.318Z,17.55
2022-10-16T20:01:25.217Z,17.52
2022-10-16T20:03:57.207Z,17.48
2022-10-16T20:06:28.979Z,17.46
2022-10-16T20:09:00.459Z,17.44
2022-10-16T20:11:33.932Z,17.42
2022-10-16T20:14:06.541Z,17.40
2022-10-16T20:16:39.491Z,17.40
2022-10-16T20:19:11.389Z,17.38
2022-10-16T20:21:43.020Z,17.36
2022-10-16T20:24:15.715Z,17.32
2022-10-16T20:26:47.295Z,17.29
2022-10-16T20:29:18.697Z,17.26
2022-10-16T20:31:49.925Z,17.24
2022-10-16T20:34:21.021Z,17.20
2022-10-16T20:36:52.695Z,17.19
2022-10-16T20:39:23.818Z,17.17
2022-10-16T20:41:54.984Z,17.15
2022-10-16T20:44:29.086Z,17.12
2022-10-16T20:47:00.403Z,17.11
2022-10-16T20:49:44.455Z,17.11
2022-10-16T20:52:17.338Z,17.11
2022-10-16T20:54:48.777Z,17.12
2022-10-16T20:57:21.694Z,17.10
2022-10-16T20:59:55.698Z,17.10
2022-10-16T21:02:26.875Z,17.11
2022-10-16T21:05:01.027Z,17.11
2022-10-16T21:07:32.090Z,17.11
2022-10-16T21:10:03.202Z,17.11
2022-10-16T21:12:34.375Z,17.10
2022-10-16T21:15:20.721Z,17.10
2022-10-16T21:17:53.231Z,17.10
2022-10-16T21:20:24.317Z,17.08
2022-10-16T21:22:56.407Z,17.06
2022-10-16T21:25:27.728Z,17.04
2022-10-16T21:28:01.608Z,17.04
2022-10-16T21:30:32.916Z,17.04
2022-10-16T21:33:03.962Z,17.02
2022-10-16T21:35:34.986Z,16.99
2022-10-16T21:38:07.573Z,16.96
2022-10-16T21:40:39.808Z,16.93
2022-10-16T21:43:11.143Z,16.92
2022-10-16T21:45:42.174Z,16.91
2022-10-16T21:48:13.170Z,16.90
2022-10-16T21:50:50.506Z,16.89
2022-10-16T21:53:21.455Z,16.86
2022-10-16T21:55:52.456Z,16.85
2022-10-16T21:58:23.434Z,16.84
2022-10-16T22:00:54.613Z,16.82
2022-10-16T22:03:25.715Z,16.81
2022-10-16T22:05:56.714Z,16.79
2022-10-16T22:08:27.715Z,16.77
2022-10-16T22:11:05.969Z,16.76
2022-10-16T22:13:37.103Z,16.74
2022-10-16T22:16:09.606Z,16.72
2022-10-16T22:18:41.529Z,16.72
2022-10-16T22:21:12.541Z,16.72
2022-10-16T22:23:43.442Z,16.71
2022-10-16T22:26:14.890Z,16.67
2022-10-16T22:28:46.031Z,16.64
2022-10-16T22:31:17.630Z,16.61
2022-10-16T22:33:48.600Z,16.60
2022-10-16T22:36:19.896Z,16.59
2022-10-16T22:38:51.122Z,16.58
2022-10-16T22:41:23.051Z,16.56
2022-10-16T22:43:54.430Z,16.54
2022-10-16T22:46:28.929Z,16.52
2022-10-16T22:49:00.302Z,16.48
2022-10-16T22:51:31.380Z,16.45
2022-10-16T22:54:02.482Z,16.42
2022-10-16T22:56:33.423Z,16.39
2022-10-16T22:59:04.740Z,16.36
2022-10-16T23:01:39.212Z,16.33
2022-10-16T23:04:10.638Z,16.31
2022-10-16T23:06:41.607Z,16.26
2022-10-16T23:09:13.916Z,16.23
2022-10-16T23:11:44.894Z,16.22
2022-10-16T23:14:20.331Z,16.23
2022-10-16T23:16:51.758Z,16.23
2022-10-16T23:19:22.746Z,16.23
2022-10-16T23:21:53.708Z,16.22
2022-10-16T23:24:24.650Z,16.19
2022-10-16T23:26:55.704Z,16.15
2022-10-16T23:29:26.725Z,16.11
2022-10-16T23:31:58.183Z,16.08
2022-10-16T23:34:29.331Z,16.05
2022-10-16T23:37:00.320Z,16.00
2022-10-16T23:39:31.511Z,15.95
2022-10-16T23:42:02.583Z,15.91
2022-10-16T23:44:34.460Z,15.88
2022-10-16T23:47:05.457Z,15.86
2022-10-16T23:49:36.446Z,15.87
2022-10-16T23:52:08.029Z,15.85
2022-10-16T23:54:39.093Z,15.85
2022-10-16T23:57:10.039Z,15.87
2022-10-16T23:59:41.055Z,15.88
